sensor_id;sensor_type;location;lat;lon;timestamp;pressure;altitude;pressure_sealevel;temperature;humidity
70407;BME280;57821;52.202;0.154;2023-04-20T00:01:50;102572.56;;;6.16;68.53
70407;BME280;57821;52.202;0.154;2023-04-20T00:04:16;102570.81;;;6.15;69.11
70407;BME280;57821;52.202;0.154;2023-04-20T00:06:44;102563.88;;;6.14;69.20
70407;BME280;57821;52.202;0.154;2023-04-20T00:09:12;102564.69;;;6.13;69.46
70407;BME280;57821;52.202;0.154;2023-04-20T00:11:39;102552.63;;;6.12;69.23
70407;BME280;57821;52.202;0.154;2023-04-20T00:14:06;102559.44;;;6.10;70.09
70407;BME280;57821;52.202;0.154;2023-04-20T00:16:33;102560.25;;;6.09;69.28
70407;BME280;57821;52.202;0.154;2023-04-20T00:18:59;102556.59;;;6.04;69.92
70407;BME280;57821;52.202;0.154;2023-04-20T00:21:26;102547.91;;;6.02;70.58
70407;BME280;57821;52.202;0.154;2023-04-20T00:23:52;102558.22;;;6.02;71.34
70407;BME280;57821;52.202;0.154;2023-04-20T00:26:19;102549.47;;;5.98;70.98
70407;BME280;57821;52.202;0.154;2023-04-20T00:28:49;102549.47;;;5.98;71.39
70407;BME280;57821;52.202;0.154;2023-04-20T00:31:17;102539.00;;;5.94;71.17
70407;BME280;57821;52.202;0.154;2023-04-20T00:33:46;102543.25;;;5.93;70.59
70407;BME280;57821;52.202;0.154;2023-04-20T00:36:13;102532.88;;;5.92;72.21
70407;BME280;57821;52.202;0.154;2023-04-20T00:38:39;102536.28;;;5.91;71.91
70407;BME280;57821;52.202;0.154;2023-04-20T00:41:06;102545.59;;;5.89;71.46
70407;BME280;57821;52.202;0.154;2023-04-20T00:43:32;102532.69;;;5.87;72.89
70407;BME280;57821;52.202;0.154;2023-04-20T00:45:59;102528.13;;;5.82;72.38
70407;BME280;57821;52.202;0.154;2023-04-20T00:48:26;102529.06;;;5.84;73.31
70407;BME280;57821;52.202;0.154;2023-04-20T00:50:53;102540.16;;;5.83;72.46
70407;BME280;57821;52.202;0.154;2023-04-20T00:53:20;102528.13;;;5.82;72.48
70407;BME280;57821;52.202;0.154;2023-04-20T00:55:49;102524.59;;;5.79;72.43
70407;BME280;57821;52.202;0.154;2023-04-20T00:58:15;102526.22;;;5.77;73.23
70407;BME280;57821;52.202;0.154;2023-04-20T01:00:42;102531.31;;;5.76;73.40
70407;BME280;57821;52.202;0.154;2023-04-20T01:03:08;102521.91;;;5.76;73.57
70407;BME280;57821;52.202;0.154;2023-04-20T01:05:35;102513.22;;;5.74;74.18
70407;BME280;57821;52.202;0.154;2023-04-20T01:08:02;102514.84;;;5.72;73.49
70407;BME280;57821;52.202;0.154;2023-04-20T01:10:28;102519.19;;;5.73;73.47
70407;BME280;57821;52.202;0.154;2023-04-20T01:12:55;102507.13;;;5.72;74.45
70407;BME280;57821;52.202;0.154;2023-04-20T01:15:21;102502.72;;;5.70;73.46
70407;BME280;57821;52.202;0.154;2023-04-20T01:17:48;102500.88;;;5.67;73.84
70407;BME280;57821;52.202;0.154;2023-04-20T01:20:15;102504.28;;;5.66;73.51
70407;BME280;57821;52.202;0.154;2023-04-20T01:25:11;102497.25;;;5.62;74.36
70407;BME280;57821;52.202;0.154;2023-04-20T01:27:38;102496.34;;;5.62;74.24
70407;BME280;57821;52.202;0.154;2023-04-20T01:30:05;102491.09;;;5.59;75.10
70407;BME280;57821;52.202;0.154;2023-04-20T01:32:32;102490.22;;;5.58;75.29
70407;BME280;57821;52.202;0.154;2023-04-20T01:34:59;102488.44;;;5.57;75.52
70407;BME280;57821;52.202;0.154;2023-04-20T01:37:26;102485.78;;;5.56;75.12
70407;BME280;57821;52.202;0.154;2023-04-20T01:39:52;102486.56;;;5.53;75.55
70407;BME280;57821;52.202;0.154;2023-04-20T01:42:20;102485.59;;;5.51;75.68
70407;BME280;57821;52.202;0.154;2023-04-20T01:44:47;102482.06;;;5.49;75.93
70407;BME280;57821;52.202;0.154;2023-04-20T01:47:14;102486.34;;;5.49;74.84
70407;BME280;57821;52.202;0.154;2023-04-20T01:49:40;102478.56;;;5.47;76.08
70407;BME280;57821;52.202;0.154;2023-04-20T01:52:08;102478.41;;;5.44;75.55
70407;BME280;57821;52.202;0.154;2023-04-20T01:54:34;102477.53;;;5.44;76.66
70407;BME280;57821;52.202;0.154;2023-04-20T01:57:00;102479.09;;;5.40;75.34
70407;BME280;57821;52.202;0.154;2023-04-20T01:59:27;102477.25;;;5.37;75.61
70407;BME280;57821;52.202;0.154;2023-04-20T02:01:54;102477.19;;;5.36;76.22
70407;BME280;57821;52.202;0.154;2023-04-20T02:04:20;102467.72;;;5.35;75.32
70407;BME280;57821;52.202;0.154;2023-04-20T02:06:52;102472.00;;;5.34;75.71
70407;BME280;57821;52.202;0.154;2023-04-20T02:09:19;102480.44;;;5.32;76.83
70407;BME280;57821;52.202;0.154;2023-04-20T02:11:45;102474.38;;;5.30;76.41
70407;BME280;57821;52.202;0.154;2023-04-20T02:14:12;102474.22;;;5.27;75.85
70407;BME280;57821;52.202;0.154;2023-04-20T02:16:40;102474.69;;;5.18;76.78
70407;BME280;57821;52.202;0.154;2023-04-20T02:19:07;102483.50;;;5.23;76.83
70407;BME280;57821;52.202;0.154;2023-04-20T02:21:33;102478.13;;;5.19;75.92
70407;BME280;57821;52.202;0.154;2023-04-20T02:24:00;102484.91;;;5.17;75.80
70407;BME280;57821;52.202;0.154;2023-04-20T02:26:26;102483.94;;;5.15;76.17
70407;BME280;57821;52.202;0.154;2023-04-20T02:28:53;102479.47;;;5.11;76.12
70407;BME280;57821;52.202;0.154;2023-04-20T02:31:19;102483.66;;;5.09;76.20
70407;BME280;57821;52.202;0.154;2023-04-20T02:33:46;102480.13;;;5.07;77.17
70407;BME280;57821;52.202;0.154;2023-04-20T02:36:12;102478.41;;;5.06;77.53
70407;BME280;57821;52.202;0.154;2023-04-20T02:38:39;102480.00;;;5.04;77.42
70407;BME280;57821;52.202;0.154;2023-04-20T02:41:06;102479.00;;;5.00;77.09
70407;BME280;57821;52.202;0.154;2023-04-20T02:43:33;102476.34;;;4.99;77.91
70407;BME280;57821;52.202;0.154;2023-04-20T02:46:00;102476.34;;;4.99;76.99
70407;BME280;57821;52.202;0.154;2023-04-20T02:48:27;102480.53;;;4.96;77.71
70407;BME280;57821;52.202;0.154;2023-04-20T02:50:54;102481.31;;;4.95;77.09
70407;BME280;57821;52.202;0.154;2023-04-20T02:53:22;102476.06;;;4.92;78.45
70407;BME280;57821;52.202;0.154;2023-04-20T02:56:08;102475.09;;;4.90;77.52
70407;BME280;57821;52.202;0.154;2023-04-20T02:58:50;102476.72;;;4.88;77.55
70407;BME280;57821;52.202;0.154;2023-04-20T03:01:30;102486.94;;;4.87;77.51
70407;BME280;57821;52.202;0.154;2023-04-20T03:04:04;102487.66;;;4.84;78.39
70407;BME280;57821;52.202;0.154;2023-04-20T03:06:35;102476.38;;;4.81;78.02
70407;BME280;57821;52.202;0.154;2023-04-20T03:09:04;102473.72;;;4.79;77.71
70407;BME280;57821;52.202;0.154;2023-04-20T03:11:49;102471.06;;;4.78;77.74
70407;BME280;57821;52.202;0.154;2023-04-20T03:14:54;102471.66;;;4.72;78.27
70407;BME280;57821;52.202;0.154;2023-04-20T03:17:29;102469.84;;;4.70;77.67
70407;BME280;57821;52.202;0.154;2023-04-20T03:19:56;102468.00;;;4.67;77.72
70407;BME280;57821;52.202;0.154;2023-04-20T03:22:23;102474.69;;;4.64;78.82
70407;BME280;57821;52.202;0.154;2023-04-20T03:24:53;102471.97;;;4.61;78.97
70407;BME280;57821;52.202;0.154;2023-04-20T03:27:38;102469.34;;;4.59;77.90
70407;BME280;57821;52.202;0.154;2023-04-20T03:30:09;102465.69;;;4.54;78.25
70407;BME280;57821;52.202;0.154;2023-04-20T03:32:36;102469.06;;;4.53;78.65
70407;BME280;57821;52.202;0.154;2023-04-20T03:35:04;102474.91;;;4.50;78.97
70407;BME280;57821;52.202;0.154;2023-04-20T03:37:31;102473.91;;;4.47;79.33
70407;BME280;57821;52.202;0.154;2023-04-20T03:39:57;102464.25;;;4.43;78.16
70407;BME280;57821;52.202;0.154;2023-04-20T03:42:24;102478.66;;;4.39;79.00
70407;BME280;57821;52.202;0.154;2023-04-20T03:44:50;102476.81;;;4.37;78.42
70407;BME280;57821;52.202;0.154;2023-04-20T03:47:17;102478.44;;;4.35;78.58
70407;BME280;57821;52.202;0.154;2023-04-20T03:49:43;102482.59;;;4.33;78.39
70407;BME280;57821;52.202;0.154;2023-04-20T03:52:10;102479.81;;;4.28;79.21
70407;BME280;57821;52.202;0.154;2023-04-20T03:54:37;102486.63;;;4.28;78.79
70407;BME280;57821;52.202;0.154;2023-04-20T03:57:04;102483.09;;;4.26;80.06
70407;BME280;57821;52.202;0.154;2023-04-20T03:59:30;102484.72;;;4.24;79.79
70407;BME280;57821;52.202;0.154;2023-04-20T04:01:59;102488.09;;;4.23;79.27
70407;BME280;57821;52.202;0.154;2023-04-20T04:04:26;102487.09;;;4.19;78.86
70407;BME280;57821;52.202;0.154;2023-04-20T04:06:52;102484.34;;;4.16;79.87
70407;BME280;57821;52.202;0.154;2023-04-20T04:09:19;102489.41;;;4.14;78.99
70407;BME280;57821;52.202;0.154;2023-04-20T04:11:45;102488.38;;;4.11;79.67
70407;BME280;57821;52.202;0.154;2023-04-20T04:14:12;102484.84;;;4.09;79.63
70407;BME280;57821;52.202;0.154;2023-04-20T04:16:39;102482.94;;;4.05;80.13
70407;BME280;57821;52.202;0.154;2023-04-20T04:19:08;102487.97;;;4.03;80.00
70407;BME280;57821;52.202;0.154;2023-04-20T04:21:35;102487.75;;;3.99;79.88
70407;BME280;57821;52.202;0.154;2023-04-20T04:24:03;102490.25;;;3.97;79.20
70407;BME280;57821;52.202;0.154;2023-04-20T04:26:37;102499.56;;;3.95;79.23
70407;BME280;57821;52.202;0.154;2023-04-20T04:29:04;102488.34;;;3.93;79.11
70407;BME280;57821;52.202;0.154;2023-04-20T04:31:31;102489.94;;;3.91;79.79
70407;BME280;57821;52.202;0.154;2023-04-20T04:34:03;102494.19;;;3.91;80.38
70407;BME280;57821;52.202;0.154;2023-04-20T04:36:39;102498.44;;;3.90;79.90
70407;BME280;57821;52.202;0.154;2023-04-20T04:39:08;102489.94;;;3.91;80.94
70407;BME280;57821;52.202;0.154;2023-04-20T04:41:38;102488.25;;;3.92;80.32
70407;BME280;57821;52.202;0.154;2023-04-20T04:44:18;102491.69;;;3.92;80.73
70407;BME280;57821;52.202;0.154;2023-04-20T04:46:45;102496.03;;;3.93;81.12
70407;BME280;57821;52.202;0.154;2023-04-20T04:49:12;102493.47;;;3.93;81.20
70407;BME280;57821;52.202;0.154;2023-04-20T04:51:39;102501.25;;;3.95;81.26
70407;BME280;57821;52.202;0.154;2023-04-20T04:54:06;102495.31;;;3.96;81.38
70407;BME280;57821;52.202;0.154;2023-04-20T04:56:32;102498.72;;;3.96;80.29
70407;BME280;57821;52.202;0.154;2023-04-20T04:58:59;102503.88;;;3.96;81.13
70407;BME280;57821;52.202;0.154;2023-04-20T05:01:25;102508.16;;;3.96;80.84
70407;BME280;57821;52.202;0.154;2023-04-20T05:03:52;102499.63;;;3.97;80.62
70407;BME280;57821;52.202;0.154;2023-04-20T05:06:19;102504.84;;;3.98;81.62
70407;BME280;57821;52.202;0.154;2023-04-20T05:08:45;102501.56;;;4.01;81.43
70407;BME280;57821;52.202;0.154;2023-04-20T05:11:12;102503.28;;;4.02;81.86
70407;BME280;57821;52.202;0.154;2023-04-20T05:13:38;102496.56;;;4.04;81.79
70407;BME280;57821;52.202;0.154;2023-04-20T05:16:05;102501.94;;;4.08;81.71
70407;BME280;57821;52.202;0.154;2023-04-20T05:18:31;102501.22;;;4.11;82.50
70407;BME280;57821;52.202;0.154;2023-04-20T05:20:58;102503.91;;;4.14;82.45
70407;BME280;57821;52.202;0.154;2023-04-20T05:23:25;102509.22;;;4.17;81.80
70407;BME280;57821;52.202;0.154;2023-04-20T05:25:51;102511.88;;;4.19;82.35
70407;BME280;57821;52.202;0.154;2023-04-20T05:28:18;102510.25;;;4.21;81.78
70407;BME280;57821;52.202;0.154;2023-04-20T05:30:45;102506.06;;;4.23;82.88
70407;BME280;57821;52.202;0.154;2023-04-20T05:33:11;102511.44;;;4.27;82.19
70407;BME280;57821;52.202;0.154;2023-04-20T05:35:38;102517.63;;;4.31;nan
70407;BME280;57821;52.202;0.154;2023-04-20T05:38:05;102514.31;;;4.33;82.86
70407;BME280;57821;52.202;0.154;2023-04-20T05:40:32;102503.31;;;4.36;82.43
70407;BME280;57821;52.202;0.154;2023-04-20T05:42:59;102514.81;;;4.44;82.80
70407;BME280;57821;52.202;0.154;2023-04-20T05:45:25;102516.75;;;4.48;83.57
70407;BME280;57821;52.202;0.154;2023-04-20T05:47:55;102523.03;;;4.54;82.81
70407;BME280;57821;52.202;0.154;2023-04-20T05:50:25;102513.75;;;4.57;83.87
70407;BME280;57821;52.202;0.154;2023-04-20T05:52:52;102521.03;;;4.65;84.22
70407;BME280;57821;52.202;0.154;2023-04-20T05:55:19;102516.19;;;4.71;83.10
70407;BME280;57821;52.202;0.154;2023-04-20T05:57:49;102513.91;;;4.77;83.58
70407;BME280;57821;52.202;0.154;2023-04-20T06:00:16;102523.63;;;4.84;84.15
70407;BME280;57821;52.202;0.154;2023-04-20T06:02:43;102522.16;;;4.89;83.24
70407;BME280;57821;52.202;0.154;2023-04-20T06:05:10;102519.97;;;4.97;84.21
70407;BME280;57821;52.202;0.154;2023-04-20T06:07:37;102519.38;;;5.03;83.46
70407;BME280;57821;52.202;0.154;2023-04-20T06:10:04;102524.81;;;5.09;84.11
70407;BME280;57821;52.202;0.154;2023-04-20T06:12:31;102519.06;;;5.14;83.49
70407;BME280;57821;52.202;0.154;2023-04-20T06:14:58;102527.06;;;5.20;83.85
70407;BME280;57821;52.202;0.154;2023-04-20T06:17:25;102530.00;;;5.28;83.84
70407;BME280;57821;52.202;0.154;2023-04-20T06:19:51;102528.59;;;5.34;83.67
70407;BME280;57821;52.202;0.154;2023-04-20T06:22:18;102519.47;;;5.41;83.32
70407;BME280;57821;52.202;0.154;2023-04-20T06:24:44;102518.91;;;5.48;83.81
70407;BME280;57821;52.202;0.154;2023-04-20T06:27:11;102514.84;;;5.53;84.57
70407;BME280;57821;52.202;0.154;2023-04-20T06:29:37;102524.66;;;5.62;83.92
70407;BME280;57821;52.202;0.154;2023-04-20T06:32:04;102520.69;;;5.68;84.71
70407;BME280;57821;52.202;0.154;2023-04-20T06:34:30;102512.25;;;5.72;83.65
70407;BME280;57821;52.202;0.154;2023-04-20T06:36:57;102518.72;;;5.82;84.19
70407;BME280;57821;52.202;0.154;2023-04-20T06:39:24;102509.56;;;5.89;84.16
70407;BME280;57821;52.202;0.154;2023-04-20T06:41:50;102511.47;;;5.93;83.37
70407;BME280;57821;52.202;0.154;2023-04-20T06:44:20;102510.25;;;6.04;84.60
70407;BME280;57821;52.202;0.154;2023-04-20T06:46:46;102508.84;;;6.12;84.65
70407;BME280;57821;52.202;0.154;2023-04-20T06:49:13;102510.88;;;6.19;83.36
70407;BME280;57821;52.202;0.154;2023-04-20T06:51:39;102506.94;;;6.27;83.79
70407;BME280;57821;52.202;0.154;2023-04-20T06:54:06;102502.97;;;6.35;83.26
70407;BME280;57821;52.202;0.154;2023-04-20T06:56:32;102505.84;;;6.43;83.68
70407;BME280;57821;52.202;0.154;2023-04-20T06:59:01;102507.09;;;6.52;83.48
70407;BME280;57821;52.202;0.154;2023-04-20T07:01:27;102491.13;;;6.61;83.26
70407;BME280;57821;52.202;0.154;2023-04-20T07:03:54;102495.78;;;6.70;83.54
70407;BME280;57821;52.202;0.154;2023-04-20T07:06:21;102493.56;;;6.79;83.27
70407;BME280;57821;52.202;0.154;2023-04-20T07:08:47;102500.00;;;6.90;83.97
70407;BME280;57821;52.202;0.154;2023-04-20T07:11:14;102496.06;;;6.99;83.71
70407;BME280;57821;52.202;0.154;2023-04-20T07:13:40;102498.25;;;7.11;83.72
70407;BME280;57821;52.202;0.154;2023-04-20T07:16:07;102491.78;;;7.22;83.21
70407;BME280;57821;52.202;0.154;2023-04-20T07:18:34;102494.81;;;7.34;82.53
70407;BME280;57821;52.202;0.154;2023-04-20T07:21:01;102498.69;;;7.46;82.64
70407;BME280;57821;52.202;0.154;2023-04-20T07:23:27;102495.63;;;7.56;82.56
70407;BME280;57821;52.202;0.154;2023-04-20T07:25:54;102496.06;;;7.68;82.53
70407;BME280;57821;52.202;0.154;2023-04-20T07:28:20;102497.31;;;7.79;81.90
70407;BME280;57821;52.202;0.154;2023-04-20T07:30:47;102495.94;;;7.89;82.01
70407;BME280;57821;52.202;0.154;2023-04-20T07:33:13;102492.00;;;8.00;81.75
70407;BME280;57821;52.202;0.154;2023-04-20T07:35:40;102490.72;;;8.12;81.36
70407;BME280;57821;52.202;0.154;2023-04-20T07:38:06;102492.91;;;8.25;81.20
70407;BME280;57821;52.202;0.154;2023-04-20T07:40:33;102479.56;;;8.39;81.19
70407;BME280;57821;52.202;0.154;2023-04-20T07:42:59;102482.72;;;8.55;80.72
70407;BME280;57821;52.202;0.154;2023-04-20T07:45:26;102477.97;;;8.69;80.49
70407;BME280;57821;52.202;0.154;2023-04-20T07:47:53;102483.56;;;8.83;79.76
70407;BME280;57821;52.202;0.154;2023-04-20T07:50:19;102477.16;;;8.98;79.60
70407;BME280;57821;52.202;0.154;2023-04-20T07:52:46;102472.44;;;9.14;79.33
70407;BME280;57821;52.202;0.154;2023-04-20T07:55:12;102472.03;;;9.30;78.58
70407;BME280;57821;52.202;0.154;2023-04-20T07:57:39;102475.94;;;9.45;77.74
70407;BME280;57821;52.202;0.154;2023-04-20T08:00:06;102467.72;;;9.60;76.48
70407;BME280;57821;52.202;0.154;2023-04-20T08:02:38;102465.47;;;9.72;76.19
70407;BME280;57821;52.202;0.154;2023-04-20T08:05:05;102456.44;;;9.89;75.59
70407;BME280;57821;52.202;0.154;2023-04-20T08:07:31;102462.06;;;10.08;75.54
70407;BME280;57821;52.202;0.154;2023-04-20T08:09:58;102455.56;;;10.22;74.85
70407;BME280;57821;52.202;0.154;2023-04-20T08:12:24;102455.91;;;10.37;73.95
70407;BME280;57821;52.202;0.154;2023-04-20T08:14:51;102457.09;;;10.50;73.34
70407;BME280;57821;52.202;0.154;2023-04-20T08:17:17;102443.50;;;10.60;72.63
70407;BME280;57821;52.202;0.154;2023-04-20T08:19:44;102445.50;;;10.73;72.12
70407;BME280;57821;52.202;0.154;2023-04-20T08:22:11;102443.25;;;10.87;71.33
70407;BME280;57821;52.202;0.154;2023-04-20T08:24:38;102456.53;;;11.00;71.07
70407;BME280;57821;52.202;0.154;2023-04-20T08:27:07;102454.16;;;11.11;69.86
70407;BME280;57821;52.202;0.154;2023-04-20T08:29:33;102439.72;;;11.24;70.21
70407;BME280;57821;52.202;0.154;2023-04-20T08:32:00;102452.94;;;11.37;68.97
70407;BME280;57821;52.202;0.154;2023-04-20T08:34:26;102459.31;;;11.51;68.14
70407;BME280;57821;52.202;0.154;2023-04-20T08:36:53;102444.78;;;11.63;66.64
70407;BME280;57821;52.202;0.154;2023-04-20T08:39:20;102446.69;;;11.73;66.56
70407;BME280;57821;52.202;0.154;2023-04-20T08:41:48;102445.19;;;11.84;66.29
70407;BME280;57821;52.202;0.154;2023-04-20T08:44:15;102428.13;;;11.98;65.17
70407;BME280;57821;52.202;0.154;2023-04-20T08:46:43;102426.63;;;12.11;64.37
70407;BME280;57821;52.202;0.154;2023-04-20T08:49:13;102436.34;;;12.24;63.95
70407;BME280;57821;52.202;0.154;2023-04-20T08:51:42;102427.00;;;12.37;63.58
70407;BME280;57821;52.202;0.154;2023-04-20T08:54:09;102417.66;;;12.48;61.90
70407;BME280;57821;52.202;0.154;2023-04-20T08:56:38;102412.56;;;12.55;61.99
70407;BME280;57821;52.202;0.154;2023-04-20T08:59:05;102427.56;;;12.73;60.81
70407;BME280;57821;52.202;0.154;2023-04-20T09:01:32;102416.47;;;12.86;60.30
70407;BME280;57821;52.202;0.154;2023-04-20T09:04:02;102415.75;;;12.99;59.01
70407;BME280;57821;52.202;0.154;2023-04-20T09:06:46;102421.91;;;13.04;58.52
70407;BME280;57821;52.202;0.154;2023-04-20T09:09:13;102418.66;;;13.19;57.75
70407;BME280;57821;52.202;0.154;2023-04-20T09:11:39;102412.72;;;13.34;58.17
70407;BME280;57821;52.202;0.154;2023-04-20T09:14:08;102408.53;;;13.46;57.24
70407;BME280;57821;52.202;0.154;2023-04-20T09:16:35;102415.69;;;13.66;56.35
70407;BME280;57821;52.202;0.154;2023-04-20T09:19:02;102401.88;;;13.76;55.98
70407;BME280;57821;52.202;0.154;2023-04-20T09:21:28;102405.50;;;13.90;55.31
70407;BME280;57821;52.202;0.154;2023-04-20T09:26:26;102391.84;;;14.27;54.99
70407;BME280;57821;52.202;0.154;2023-04-20T09:28:52;102392.97;;;14.60;54.76
70407;BME280;57821;52.202;0.154;2023-04-20T09:31:20;102382.72;;;14.95;53.82
70407;BME280;57821;52.202;0.154;2023-04-20T09:33:58;102388.03;;;15.28;52.43
70407;BME280;57821;52.202;0.154;2023-04-20T09:36:45;102381.16;;;15.57;49.33
70407;BME280;57821;52.202;0.154;2023-04-20T09:39:15;102373.31;;;15.74;49.26
70407;BME280;57821;52.202;0.154;2023-04-20T09:41:43;102370.72;;;15.94;48.86
70407;BME280;57821;52.202;0.154;2023-04-20T09:44:10;102359.38;;;16.12;47.65
70407;BME280;57821;52.202;0.154;2023-04-20T09:46:39;102344.50;;;16.26;47.28
70407;BME280;57821;52.202;0.154;2023-04-20T09:49:10;102345.31;;;16.52;45.65
70407;BME280;57821;52.202;0.154;2023-04-20T09:51:39;102340.06;;;16.67;45.24
70407;BME280;57821;52.202;0.154;2023-04-20T09:54:07;102340.81;;;16.95;45.61
70407;BME280;57821;52.202;0.154;2023-04-20T09:56:34;102328.44;;;17.21;44.36
70407;BME280;57821;52.202;0.154;2023-04-20T09:59:01;102329.91;;;17.59;43.92
70407;BME280;57821;52.202;0.154;2023-04-20T10:01:29;102334.03;;;17.93;41.85
70407;BME280;57821;52.202;0.154;2023-04-20T10:03:58;102332.00;;;18.21;40.19
70407;BME280;57821;52.202;0.154;2023-04-20T10:06:31;102324.69;;;18.51;39.37
70407;BME280;57821;52.202;0.154;2023-04-20T10:09:00;102317.38;;;18.75;39.14
70407;BME280;57821;52.202;0.154;2023-04-20T10:11:35;102314.50;;;18.97;38.48
70407;BME280;57821;52.202;0.154;2023-04-20T10:14:24;102310.47;;;19.33;38.14
70407;BME280;57821;52.202;0.154;2023-04-20T10:17:05;102297.66;;;19.66;36.75
70407;BME280;57821;52.202;0.154;2023-04-20T10:19:43;102304.16;;;19.95;36.60
70407;BME280;57821;52.202;0.154;2023-04-20T10:22:11;102291.50;;;20.15;36.33
70407;BME280;57821;52.202;0.154;2023-04-20T10:24:38;102295.56;;;20.33;35.28
70407;BME280;57821;52.202;0.154;2023-04-20T10:27:18;102293.38;;;20.55;33.89
70407;BME280;57821;52.202;0.154;2023-04-20T10:29:45;102285.22;;;20.67;33.95
70407;BME280;57821;52.202;0.154;2023-04-20T10:32:22;102288.41;;;20.81;32.77
70407;BME280;57821;52.202;0.154;2023-04-20T10:37:28;102277.69;;;20.90;31.69
70407;BME280;57821;52.202;0.154;2023-04-20T10:39:55;102277.72;;;20.87;31.12
70407;BME280;57821;52.202;0.154;2023-04-20T10:42:21;102266.19;;;20.91;31.63
70407;BME280;57821;52.202;0.154;2023-04-20T10:44:52;102256.38;;;20.99;30.58
70407;BME280;57821;52.202;0.154;2023-04-20T10:47:27;102266.53;;;21.14;29.89
70407;BME280;57821;52.202;0.154;2023-04-20T10:49:53;102261.16;;;21.20;28.92
70407;BME280;57821;52.202;0.154;2023-04-20T10:52:34;102252.44;;;21.18;28.65
70407;BME280;57821;52.202;0.154;2023-04-20T10:55:00;102244.44;;;21.21;29.23
70407;BME280;57821;52.202;0.154;2023-04-20T10:57:27;102247.59;;;21.36;29.44
70407;BME280;57821;52.202;0.154;2023-04-20T10:59:53;102247.22;;;21.51;28.64
70407;BME280;57821;52.202;0.154;2023-04-20T11:02:20;102246.16;;;21.58;28.01
70407;BME280;57821;52.202;0.154;2023-04-20T11:04:47;102249.63;;;21.60;27.35
70407;BME280;57821;52.202;0.154;2023-04-20T11:07:13;102242.63;;;21.59;28.33
70407;BME280;57821;52.202;0.154;2023-04-20T11:09:40;102237.97;;;21.67;28.00
70407;BME280;57821;52.202;0.154;2023-04-20T11:12:08;102230.59;;;21.80;28.21
70407;BME280;57821;52.202;0.154;2023-04-20T11:14:37;102228.66;;;21.86;27.40
70407;BME280;57821;52.202;0.154;2023-04-20T11:17:04;102220.72;;;21.88;26.98
70407;BME280;57821;52.202;0.154;2023-04-20T11:19:33;102233.03;;;21.87;26.88
70407;BME280;57821;52.202;0.154;2023-04-20T11:22:00;102227.78;;;21.87;27.23
70407;BME280;57821;52.202;0.154;2023-04-20T11:24:30;102234.81;;;21.87;26.51
70407;BME280;57821;52.202;0.154;2023-04-20T11:26:57;102216.78;;;21.70;26.33
70407;BME280;57821;52.202;0.154;2023-04-20T11:32:02;102207.06;;;21.72;26.86
70407;BME280;57821;52.202;0.154;2023-04-20T11:34:30;102198.22;;;21.73;26.64
70407;BME280;57821;52.202;0.154;2023-04-20T11:37:09;102199.03;;;21.77;27.03
70407;BME280;57821;52.202;0.154;2023-04-20T11:39:36;102199.63;;;21.86;26.52
70407;BME280;57821;52.202;0.154;2023-04-20T11:42:03;102184.59;;;21.90;26.67
70407;BME280;57821;52.202;0.154;2023-04-20T11:44:30;102181.69;;;21.99;26.94
70407;BME280;57821;52.202;0.154;2023-04-20T11:46:57;102185.91;;;22.06;26.98
70407;BME280;57821;52.202;0.154;2023-04-20T11:49:25;102182.34;;;22.07;26.83
70407;BME280;57821;52.202;0.154;2023-04-20T11:51:52;102171.09;;;22.00;26.21
70407;BME280;57821;52.202;0.154;2023-04-20T11:54:19;102171.31;;;21.91;27.09
70407;BME280;57821;52.202;0.154;2023-04-20T11:56:45;102168.63;;;21.93;26.52
70407;BME280;57821;52.202;0.154;2023-04-20T11:59:12;102167.06;;;21.86;27.03
70407;BME280;57821;52.202;0.154;2023-04-20T12:01:39;102159.56;;;21.72;26.50
70407;BME280;57821;52.202;0.154;2023-04-20T12:04:05;102153.88;;;21.55;26.25
70407;BME280;57821;52.202;0.154;2023-04-20T12:06:32;102156.00;;;21.41;27.00
70407;BME280;57821;52.202;0.154;2023-04-20T12:09:00;102150.00;;;21.36;26.96
70407;BME280;57821;52.202;0.154;2023-04-20T12:11:26;102152.09;;;21.21;26.53
70407;BME280;57821;52.202;0.154;2023-04-20T12:13:53;102152.53;;;21.03;26.32
70407;BME280;57821;52.202;0.154;2023-04-20T12:16:20;102135.53;;;20.81;26.69
70407;BME280;57821;52.202;0.154;2023-04-20T12:18:46;102137.59;;;20.68;27.13
70407;BME280;57821;52.202;0.154;2023-04-20T12:21:13;102137.03;;;20.56;26.76
70407;BME280;57821;52.202;0.154;2023-04-20T12:23:39;102140.91;;;20.39;27.56
70407;BME280;57821;52.202;0.154;2023-04-20T12:26:06;102135.09;;;20.22;28.05
70407;BME280;57821;52.202;0.154;2023-04-20T12:28:37;102125.78;;;20.07;27.53
70407;BME280;57821;52.202;0.154;2023-04-20T12:31:04;102131.44;;;19.88;27.87
70407;BME280;57821;52.202;0.154;2023-04-20T12:33:30;102127.44;;;19.70;28.19
70407;BME280;57821;52.202;0.154;2023-04-20T12:35:57;102123.38;;;19.52;27.82
70407;BME280;57821;52.202;0.154;2023-04-20T12:38:23;102113.13;;;19.37;27.71
70407;BME280;57821;52.202;0.154;2023-04-20T12:40:50;102115.19;;;19.21;27.80
70407;BME280;57821;52.202;0.154;2023-04-20T12:43:16;102117.25;;;19.04;28.25
70407;BME280;57821;52.202;0.154;2023-04-20T12:45:43;102102.59;;;18.90;28.38
70407;BME280;57821;52.202;0.154;2023-04-20T12:48:09;102105.50;;;18.73;28.36
70407;BME280;57821;52.202;0.154;2023-04-20T12:50:36;102103.06;;;18.59;28.35
70407;BME280;57821;52.202;0.154;2023-04-20T12:53:02;102111.09;;;18.47;29.55
70407;BME280;57821;52.202;0.154;2023-04-20T12:55:29;102106.81;;;18.43;29.30
70407;BME280;57821;52.202;0.154;2023-04-20T12:57:55;102104.28;;;18.35;29.29
70407;BME280;57821;52.202;0.154;2023-04-20T13:00:22;102101.81;;;18.25;29.34
70407;BME280;57821;52.202;0.154;2023-04-20T13:02:49;102087.09;;;18.15;29.04
70407;BME280;57821;52.202;0.154;2023-04-20T13:05:15;102089.81;;;18.05;29.56
70407;BME280;57821;52.202;0.154;2023-04-20T13:07:42;102076.81;;;17.99;29.60
70407;BME280;57821;52.202;0.154;2023-04-20T13:10:09;102079.44;;;17.99;29.55
70407;BME280;57821;52.202;0.154;2023-04-20T13:12:35;102077.69;;;17.98;29.64